CheckWX is a tool to help pilots better visualize weather data.  It is not intended as a substitute for an official pre-flight weather briefing.

23:19:56 UTC

KHPN METAR
Westchester County Airport
White Plains, New York, USA
Current

24 mins ago

KHPN 082256Z 00000KT 10SM BKN100 24/22 A2996 RMK AO2 RAE00 SLP141 P0000 T02390217 $
Observed
Jul-8 @ 22:56 UTC
Visibility
10 SM
Flight Rules
VFR
Cloud Levels
  • Broken at 10,000' AGL
Temperature
24°C / 75°F
Dewpoint
22°C / 72°F
Humidity
89%
Altimeter
29.96" Hg
Pressure
1014.52 hPa
Current Rain
0.01"
Previous

1 hour ago

KHPN 082156Z 27003KT 10SM -RA FEW050 SCT070 BKN100 24/22 A2996 RMK AO2 SLP141 P0001 T02390217 $
Observed
Jul-8 @ 21:56 UTC
Wind
  • 270° at 3 KTS
Visibility
10 SM
Flight Rules
VFR
Conditions
Light Rain
Cloud Levels
  • Few at 5,000' AGL
  • Scattered at 7,000' AGL
  • Broken at 10,000' AGL
Temperature
24°C / 75°F
Dewpoint
22°C / 72°F
Humidity
89%
Altimeter
29.96" Hg
Pressure
1014.52 hPa
Current Rain
0.01"
Previous

2 hours ago

KHPN 082056Z 31003KT 7SM -RA SCT080 OVC100 23/22 A2999 RMK AO2 TSE08E24 SLP149 TS E MOV SE P0030 60037 T02280217 58004 $
Observed
Jul-8 @ 20:56 UTC
Wind
  • 310° at 3 KTS
Visibility
7 SM
Flight Rules
VFR
Conditions
Light Rain
Cloud Levels
  • Scattered at 8,000' AGL
  • Overcast at 10,000' AGL
Temperature
23°C / 73°F
Dewpoint
22°C / 72°F
Humidity
94%
Altimeter
29.99" Hg
Pressure
1015.62 hPa
Current Rain
0.3"